createdAt,value
2017-10-28T00:00:14.060Z,21.40
2017-10-28T00:02:41.599Z,25.07
2017-10-28T00:05:09.140Z,26.40
2017-10-28T00:07:36.713Z,27.27
2017-10-28T00:10:04.248Z,27.80
2017-10-28T00:12:32.557Z,25.53
2017-10-28T00:15:00.139Z,20.50
2017-10-28T00:17:27.680Z,27.10
2017-10-28T00:19:55.220Z,23.43
2017-10-28T00:22:22.819Z,26.40
2017-10-28T00:24:50.355Z,23.53
2017-10-28T00:27:17.883Z,22.83
2017-10-28T00:29:46.228Z,24.95
2017-10-28T00:32:21.073Z,25.60
2017-10-28T00:34:54.376Z,22.80
2017-10-28T00:37:21.915Z,29.23
2017-10-28T00:39:49.452Z,28.87
2017-10-28T00:42:17.012Z,26.80
2017-10-28T00:44:44.543Z,30.33
2017-10-28T00:47:12.083Z,24.00
2017-10-28T00:49:40.416Z,31.67
2017-10-28T00:52:07.955Z,27.37
2017-10-28T00:54:35.581Z,24.63
2017-10-28T00:57:03.159Z,26.83
2017-10-28T00:59:30.698Z,32.90
2017-10-28T01:01:58.997Z,29.23
2017-10-28T01:04:26.557Z,29.10
2017-10-28T01:06:54.115Z,29.50
2017-10-28T01:09:21.648Z,29.13
2017-10-28T01:11:49.969Z,24.13
2017-10-28T01:14:17.743Z,27.60
2017-10-28T01:16:46.048Z,29.87
2017-10-28T01:19:15.442Z,25.87
2017-10-28T01:21:42.981Z,34.63
2017-10-28T01:24:10.516Z,33.87
2017-10-28T01:26:38.084Z,34.87
2017-10-28T01:29:05.620Z,33.30
2017-10-28T01:31:33.932Z,34.33
2017-10-28T01:34:01.492Z,27.58
2017-10-28T01:36:29.019Z,36.33
2017-10-28T01:38:56.555Z,31.03
2017-10-28T01:41:24.140Z,27.83
2017-10-28T01:43:52.441Z,39.13
2017-10-28T01:46:19.976Z,33.03
2017-10-28T01:48:47.540Z,31.73
2017-10-28T01:51:16.439Z,29.98
2017-10-28T01:53:43.971Z,31.97
2017-10-28T01:56:11.548Z,32.75
2017-10-28T01:58:39.932Z,35.77
2017-10-28T02:01:07.471Z,35.77
2017-10-28T02:03:35.822Z,28.73
2017-10-28T02:06:03.357Z,28.73
2017-10-28T02:08:30.895Z,32.03
2017-10-28T02:10:58.460Z,30.10
2017-10-28T02:13:25.996Z,32.60
2017-10-28T02:15:54.687Z,35.40
2017-10-28T02:18:23.023Z,31.73
2017-10-28T02:20:50.564Z,29.75
2017-10-28T02:23:18.104Z,31.90
2017-10-28T02:25:45.688Z,42.13
2017-10-28T02:28:15.313Z,26.55
2017-10-28T02:30:42.841Z,32.73
2017-10-28T02:33:10.413Z,30.50
2017-10-28T02:35:37.948Z,30.47
2017-10-28T02:38:05.484Z,30.88
2017-10-28T02:40:33.804Z,29.17
2017-10-28T02:43:01.340Z,34.90
2017-10-28T02:45:28.875Z,28.93
2017-10-28T02:47:56.484Z,32.80
2017-10-28T02:50:24.019Z,29.70
2017-10-28T02:52:51.565Z,31.27
2017-10-28T02:55:19.903Z,30.00
2017-10-28T02:57:47.441Z,32.78
2017-10-28T03:00:16.529Z,30.33
2017-10-28T03:02:44.097Z,34.20
2017-10-28T03:05:11.631Z,33.10
2017-10-28T03:07:39.174Z,33.27
2017-10-28T03:10:06.759Z,32.83
2017-10-28T03:12:34.298Z,34.53
2017-10-28T03:15:01.840Z,29.73
2017-10-28T03:17:30.677Z,35.87
2017-10-28T03:19:58.215Z,31.47
2017-10-28T03:22:25.756Z,28.30
2017-10-28T03:24:54.079Z,30.17
2017-10-28T03:27:21.611Z,34.90
2017-10-28T03:29:49.158Z,32.63
2017-10-28T03:32:17.512Z,32.57
2017-10-28T03:34:45.045Z,36.30
2017-10-28T03:37:13.518Z,37.47
2017-10-28T03:39:41.085Z,34.13
2017-10-28T03:42:08.628Z,37.17
2017-10-28T03:47:34.840Z,35.30
2017-10-28T03:50:02.391Z,44.53
2017-10-28T03:52:29.932Z,34.83
2017-10-28T03:54:57.504Z,34.92
2017-10-28T03:57:25.043Z,42.33
2017-10-28T03:59:52.599Z,40.77
2017-10-28T04:02:20.172Z,39.17
2017-10-28T04:04:47.699Z,36.43
2017-10-28T04:07:16.424Z,42.83
2017-10-28T04:09:44.007Z,42.37
2017-10-28T04:12:11.543Z,45.30
2017-10-28T04:14:39.078Z,34.60
2017-10-28T04:17:06.636Z,43.23
2017-10-28T04:19:34.632Z,40.90
2017-10-28T04:22:02.161Z,42.80
2017-10-28T04:24:29.724Z,38.60
2017-10-28T04:29:50.196Z,40.70
2017-10-28T04:32:17.735Z,35.73
2017-10-28T04:34:45.313Z,37.37
2017-10-28T04:37:14.522Z,36.03
2017-10-28T04:50:12.127Z,36.73
2017-10-28T04:52:39.667Z,35.77
2017-10-28T04:55:07.972Z,40.00
2017-10-28T04:57:35.545Z,37.80
2017-10-28T05:00:03.080Z,38.90
2017-10-28T05:02:31.400Z,44.13
2017-10-28T05:04:58.973Z,39.47
2017-10-28T05:07:26.512Z,40.23
2017-10-28T05:09:54.048Z,41.93
2017-10-28T05:12:21.916Z,44.33
2017-10-28T05:14:49.457Z,42.88
2017-10-28T05:17:17.781Z,43.47
2017-10-28T05:19:45.661Z,40.00
2017-10-28T05:22:15.380Z,46.37
2017-10-28T05:24:42.937Z,38.00
2017-10-28T05:27:10.500Z,38.20
2017-10-28T05:29:38.099Z,35.17
2017-10-28T05:32:06.900Z,31.97
2017-10-28T05:34:34.529Z,50.65
2017-10-28T05:37:02.074Z,38.23
2017-10-28T05:39:29.615Z,36.43
2017-10-28T05:41:57.175Z,46.53
2017-10-28T05:44:24.728Z,39.00
2017-10-28T05:46:52.269Z,41.50
2017-10-28T05:49:19.837Z,38.28
2017-10-28T05:51:48.148Z,41.95
2017-10-28T05:54:17.191Z,35.15
2017-10-28T05:56:45.322Z,46.63
2017-10-28T05:59:23.632Z,32.65
2017-10-28T06:05:04.224Z,33.27
2017-10-28T06:07:31.762Z,32.37
2017-10-28T06:09:59.304Z,38.50
2017-10-28T06:12:27.069Z,36.23
2017-10-28T06:14:54.608Z,33.67
2017-10-28T06:17:22.148Z,34.30
2017-10-28T06:19:50.495Z,44.93
2017-10-28T06:22:18.049Z,31.87
2017-10-28T06:24:45.601Z,30.50
2017-10-28T06:27:14.584Z,36.00
2017-10-28T06:29:42.124Z,35.00
2017-10-28T06:32:09.660Z,32.20
2017-10-28T06:34:38.011Z,35.77
2017-10-28T06:37:05.538Z,28.73
2017-10-28T06:39:33.063Z,29.95
2017-10-28T06:42:00.627Z,32.10
2017-10-28T06:44:28.159Z,31.00
2017-10-28T06:46:55.684Z,30.43
2017-10-28T06:49:23.244Z,31.03
2017-10-28T06:51:50.771Z,30.40
2017-10-28T06:54:18.305Z,32.60
2017-10-28T06:56:46.646Z,30.47
2017-10-28T06:59:26.585Z,25.90
2017-10-28T07:05:46.451Z,24.53
2017-10-28T07:08:16.394Z,29.87
2017-10-28T07:10:43.919Z,35.67
2017-10-28T07:13:11.547Z,24.27
2017-10-28T07:15:39.080Z,33.07
2017-10-28T07:18:06.628Z,25.60
2017-10-28T07:20:34.300Z,27.60
2017-10-28T07:23:01.828Z,23.30
2017-10-28T07:25:30.128Z,26.40
2017-10-28T07:27:57.688Z,24.50
2017-10-28T07:30:25.217Z,27.43
2017-10-28T07:32:53.511Z,32.13
2017-10-28T07:35:21.112Z,25.03
2017-10-28T07:37:48.654Z,22.67
2017-10-28T07:40:17.223Z,28.25
2017-10-28T07:42:44.816Z,24.63
2017-10-28T07:45:12.353Z,29.60
2017-10-28T07:47:39.890Z,28.27
2017-10-28T07:50:08.224Z,23.87
2017-10-28T07:52:35.760Z,25.87
2017-10-28T07:55:03.304Z,25.33
2017-10-28T07:57:30.892Z,27.50
2017-10-28T07:59:58.419Z,25.77
2017-10-28T08:02:25.953Z,30.20
2017-10-28T08:04:54.279Z,20.05
2017-10-28T08:07:21.817Z,25.07
2017-10-28T08:09:49.353Z,24.57
2017-10-28T08:12:16.917Z,22.70
2017-10-28T08:14:44.459Z,32.60
2017-10-28T08:17:13.696Z,25.60
2017-10-28T08:19:41.284Z,27.40
2017-10-28T08:22:09.327Z,36.00
2017-10-28T08:24:36.856Z,23.50
2017-10-28T08:27:04.430Z,24.83
2017-10-28T08:29:31.967Z,22.43
2017-10-28T08:31:59.506Z,25.20
2017-10-28T08:34:27.059Z,21.30
2017-10-28T08:36:54.605Z,20.50
2017-10-28T08:39:22.138Z,25.87
2017-10-28T08:41:50.303Z,22.30
2017-10-28T08:44:17.841Z,21.23
2017-10-28T08:46:45.372Z,16.90
2017-10-28T08:49:24.668Z,21.10
2017-10-28T08:56:47.373Z,20.67
2017-10-28T08:59:29.702Z,17.00
2017-10-28T09:07:38.278Z,20.30
2017-10-28T09:10:06.687Z,22.70
2017-10-28T09:12:34.223Z,18.83
2017-10-28T09:15:01.873Z,17.60
2017-10-28T09:17:29.918Z,19.20
2017-10-28T09:19:57.557Z,24.55
2017-10-28T09:22:39.151Z,20.23
2017-10-28T09:25:07.739Z,20.57
2017-10-28T09:27:35.369Z,20.07
2017-10-28T09:30:03.000Z,20.17
2017-10-28T09:32:30.544Z,21.10
2017-10-28T09:34:58.096Z,23.00
2017-10-28T09:37:25.655Z,21.63
2017-10-28T09:39:53.259Z,20.00
2017-10-28T09:42:21.564Z,21.90
2017-10-28T09:44:49.164Z,19.23
2017-10-28T09:47:16.699Z,18.17
2017-10-28T09:49:44.236Z,19.27
2017-10-28T09:52:11.836Z,16.70
2017-10-28T09:54:39.416Z,21.60
2017-10-28T09:57:07.060Z,20.10
2017-10-28T09:59:34.631Z,15.25
2017-10-28T10:02:02.176Z,18.80
2017-10-28T10:04:29.717Z,16.13
2017-10-28T10:06:57.353Z,19.50
2017-10-28T10:09:24.909Z,21.40
2017-10-28T10:11:53.224Z,22.50
2017-10-28T10:14:20.805Z,31.80
2017-10-28T10:16:48.348Z,16.33
2017-10-28T10:19:16.543Z,18.62
2017-10-28T10:21:44.136Z,20.30
2017-10-28T10:24:11.824Z,17.47
2017-10-28T10:26:39.365Z,19.35
2017-10-28T10:29:06.950Z,15.20
2017-10-28T10:31:34.485Z,15.05
2017-10-28T10:34:02.787Z,15.37
2017-10-28T10:36:30.549Z,13.83
2017-10-28T10:39:00.177Z,15.60
2017-10-28T10:41:27.720Z,14.63
2017-10-28T10:43:55.328Z,15.17
2017-10-28T10:46:23.753Z,11.30
2017-10-28T10:48:51.396Z,13.73
2017-10-28T10:51:19.761Z,10.47
2017-10-28T10:53:48.475Z,16.00
2017-10-28T10:56:16.466Z,14.73
2017-10-28T10:58:44.044Z,13.10
2017-10-28T11:01:11.587Z,13.77
2017-10-28T11:03:41.346Z,16.10
2017-10-28T11:06:11.155Z,11.23
2017-10-28T11:08:39.269Z,11.00
2017-10-28T11:11:06.818Z,15.90
2017-10-28T11:13:34.467Z,22.17
2017-10-28T11:16:02.779Z,10.73
2017-10-28T11:18:30.328Z,11.47
2017-10-28T11:20:57.889Z,11.57
2017-10-28T11:23:25.435Z,16.17
2017-10-28T11:25:53.380Z,17.33
2017-10-28T11:28:20.946Z,13.23
2017-10-28T11:30:49.251Z,17.47
2017-10-28T11:33:16.810Z,9.40
2017-10-28T11:35:45.626Z,12.30
2017-10-28T11:38:27.656Z,10.38
2017-10-28T11:43:27.220Z,13.10
2017-10-28T11:45:54.764Z,13.37
2017-10-28T11:48:23.084Z,18.08
2017-10-28T11:50:50.697Z,13.70
2017-10-28T11:53:18.273Z,14.53
2017-10-28T11:55:45.832Z,10.23
2017-10-28T11:58:15.397Z,11.68
2017-10-28T12:00:42.948Z,12.50
2017-10-28T12:03:10.547Z,12.00
2017-10-28T12:05:38.130Z,13.73
2017-10-28T12:08:05.698Z,11.23
2017-10-28T12:10:33.266Z,16.98
2017-10-28T12:13:00.894Z,15.60
2017-10-28T12:15:28.456Z,14.50
2017-10-28T12:17:56.008Z,19.43
2017-10-28T12:20:24.346Z,13.00
2017-10-28T12:22:53.016Z,13.80
2017-10-28T12:25:21.366Z,12.87
2017-10-28T12:27:49.472Z,16.63
2017-10-28T12:30:17.919Z,14.90
2017-10-28T12:32:45.472Z,11.63
2017-10-28T12:35:23.716Z,12.00
2017-10-28T12:40:31.608Z,11.50
2017-10-28T12:42:59.189Z,22.60
2017-10-28T12:45:26.739Z,14.65
2017-10-28T12:47:54.360Z,12.43
2017-10-28T12:50:22.704Z,28.60
2017-10-28T12:52:50.260Z,18.23
2017-10-28T12:55:19.806Z,17.00
2017-10-28T13:05:39.421Z,10.60
2017-10-28T13:08:07.069Z,12.43
2017-10-28T13:10:34.721Z,12.77
2017-10-28T13:13:02.368Z,15.97
2017-10-28T13:15:29.968Z,13.53
2017-10-28T13:17:57.753Z,18.30
2017-10-28T13:20:25.361Z,9.90
2017-10-28T13:22:52.985Z,15.43
2017-10-28T13:25:21.381Z,16.74
2017-10-28T13:27:48.949Z,12.03
2017-10-28T13:30:17.791Z,10.43
2017-10-28T13:32:46.205Z,14.50
2017-10-28T13:35:16.277Z,9.88
2017-10-28T13:37:44.057Z,9.10
2017-10-28T13:40:11.663Z,9.93
2017-10-28T13:42:39.310Z,10.70
2017-10-28T13:45:06.925Z,10.20
2017-10-28T13:47:34.475Z,13.15
2017-10-28T13:50:02.028Z,10.50
2017-10-28T13:52:29.555Z,9.57
2017-10-28T13:54:57.092Z,10.60
2017-10-28T13:57:25.432Z,9.90
2017-10-28T13:59:52.969Z,11.43
2017-10-28T14:02:21.283Z,13.00
2017-10-28T14:04:48.860Z,17.33
2017-10-28T14:07:16.428Z,14.85
2017-10-28T14:09:43.960Z,14.53
2017-10-28T14:12:11.532Z,13.83
2017-10-28T14:14:39.067Z,13.53
2017-10-28T14:17:06.605Z,15.50
2017-10-28T14:19:34.187Z,15.53
2017-10-28T14:22:01.715Z,13.30
2017-10-28T14:24:29.252Z,18.43
2017-10-28T14:26:56.811Z,16.60
2017-10-28T14:29:24.339Z,12.73
2017-10-28T14:31:52.272Z,14.13
2017-10-28T14:34:19.840Z,16.47
2017-10-28T14:36:47.384Z,12.20
2017-10-28T14:39:17.225Z,14.07
2017-10-28T14:41:44.795Z,12.30
2017-10-28T14:44:12.336Z,12.03
2017-10-28T14:46:39.880Z,14.80
2017-10-28T14:49:08.212Z,17.07
2017-10-28T14:51:35.753Z,15.37
2017-10-28T14:54:03.541Z,13.90
2017-10-28T14:56:31.128Z,10.77
2017-10-28T14:58:58.985Z,15.50
2017-10-28T15:01:26.640Z,17.60
2017-10-28T15:03:54.314Z,13.37
2017-10-28T15:06:21.893Z,13.77
2017-10-28T15:08:49.443Z,15.63
2017-10-28T15:11:17.036Z,18.73
2017-10-28T15:13:44.662Z,17.77
2017-10-28T15:16:14.260Z,12.03
2017-10-28T15:18:42.612Z,15.10
2017-10-28T15:21:11.104Z,20.03
2017-10-28T15:23:38.723Z,14.60
2017-10-28T15:26:06.348Z,14.60
2017-10-28T15:28:33.909Z,12.80
2017-10-28T15:31:02.257Z,14.60
2017-10-28T15:33:29.941Z,12.83
2017-10-28T15:35:58.279Z,18.90
2017-10-28T15:38:25.807Z,10.80
2017-10-28T15:40:53.381Z,16.10
2017-10-28T15:43:20.920Z,11.87
2017-10-28T15:45:48.446Z,14.15
2017-10-28T15:48:16.786Z,18.80
2017-10-28T15:50:44.311Z,17.77
2017-10-28T15:53:12.915Z,17.57
2017-10-28T15:55:40.484Z,14.07
2017-10-28T15:58:08.108Z,14.20
2017-10-28T16:00:35.652Z,15.93
2017-10-28T16:03:03.988Z,12.33
2017-10-28T16:05:31.514Z,14.60
2017-10-28T16:07:59.064Z,21.83
2017-10-28T16:10:26.656Z,11.73
2017-10-28T16:12:54.192Z,12.90
2017-10-28T16:15:21.722Z,12.73
2017-10-28T16:17:49.309Z,14.07
2017-10-28T16:20:16.852Z,13.90
2017-10-28T16:22:45.155Z,14.33
2017-10-28T16:25:13.645Z,13.10
2017-10-28T16:27:41.177Z,11.60
2017-10-28T16:30:08.731Z,15.17
2017-10-28T16:32:36.312Z,12.30
2017-10-28T16:35:04.281Z,13.93
2017-10-28T16:37:31.825Z,14.53
2017-10-28T16:39:59.396Z,13.93
2017-10-28T16:42:27.025Z,18.52
2017-10-28T16:44:54.648Z,12.80
2017-10-28T16:47:22.208Z,14.63
2017-10-28T16:49:49.751Z,15.60
2017-10-28T16:52:17.285Z,20.07
2017-10-28T16:54:44.896Z,14.93
2017-10-28T16:57:12.473Z,17.63
2017-10-28T16:59:40.028Z,14.33
2017-10-28T17:02:07.634Z,13.98
2017-10-28T17:04:35.199Z,14.23
2017-10-28T17:07:02.846Z,17.53
2017-10-28T17:09:30.410Z,18.60
2017-10-28T17:11:57.959Z,15.63
2017-10-28T17:14:25.501Z,13.18
2017-10-28T17:16:53.100Z,14.03
2017-10-28T17:19:20.646Z,16.70
2017-10-28T17:21:48.188Z,15.77
2017-10-28T17:24:17.304Z,16.17
2017-10-28T17:26:44.839Z,16.53
2017-10-28T17:29:12.368Z,13.50
2017-10-28T17:31:39.936Z,17.57
2017-10-28T17:34:07.519Z,24.80
2017-10-28T17:36:35.061Z,17.40
2017-10-28T17:39:02.643Z,18.43
2017-10-28T17:41:30.178Z,16.73
2017-10-28T17:43:58.507Z,20.23
2017-10-28T17:46:26.183Z,18.20
2017-10-28T17:48:53.720Z,17.93
2017-10-28T17:51:22.018Z,14.20
2017-10-28T17:53:49.739Z,15.20
2017-10-28T17:56:17.296Z,15.17
2017-10-28T17:58:44.859Z,12.60
2017-10-28T18:01:12.511Z,15.20
2017-10-28T18:03:40.039Z,11.80
2017-10-28T18:06:07.568Z,19.40
2017-10-28T18:08:35.156Z,11.27
2017-10-28T18:11:02.687Z,17.03
2017-10-28T18:13:30.215Z,14.80
2017-10-28T18:15:57.763Z,13.30
2017-10-28T18:18:26.065Z,10.52
2017-10-28T18:20:53.696Z,10.40
2017-10-28T18:23:22.083Z,14.93
2017-10-28T18:25:50.584Z,9.27
2017-10-28T18:28:18.113Z,8.57
2017-10-28T18:30:45.664Z,7.83
2017-10-28T18:33:15.307Z,11.45
2017-10-28T18:35:42.847Z,10.63
2017-10-28T18:38:11.815Z,9.80
2017-10-28T18:40:39.347Z,8.43
2017-10-28T18:43:06.875Z,11.50
2017-10-28T18:45:34.486Z,8.55
2017-10-28T18:48:02.031Z,16.10
2017-10-28T18:50:29.635Z,7.60
2017-10-28T18:52:57.972Z,12.90
2017-10-28T18:55:25.507Z,7.20
2017-10-28T18:57:53.065Z,7.95
2017-10-28T19:00:20.828Z,7.58
2017-10-28T19:02:48.363Z,8.52
2017-10-28T19:05:16.429Z,9.90
2017-10-28T19:07:44.029Z,7.37
2017-10-28T19:10:11.580Z,8.07
2017-10-28T19:12:39.104Z,7.37
2017-10-28T19:15:07.431Z,6.13
2017-10-28T19:17:34.967Z,10.53
2017-10-28T19:20:02.496Z,6.80
2017-10-28T19:22:30.052Z,6.63
2017-10-28T19:24:57.596Z,6.00
2017-10-28T19:27:25.136Z,6.43
2017-10-28T19:29:52.872Z,11.87
2017-10-28T19:32:20.421Z,8.94
2017-10-28T19:34:47.980Z,7.43
2017-10-28T19:37:16.438Z,6.27
2017-10-28T19:39:44.116Z,4.70
2017-10-28T19:42:11.664Z,4.40
2017-10-28T19:44:39.991Z,12.73
2017-10-28T19:47:07.511Z,6.00
2017-10-28T19:49:35.807Z,12.53
2017-10-28T19:52:03.414Z,6.87
2017-10-28T19:54:30.953Z,4.30
2017-10-28T19:56:58.483Z,4.20
2017-10-28T19:59:26.043Z,7.60
2017-10-28T20:01:53.576Z,6.33
2017-10-28T20:04:21.115Z,4.33
2017-10-28T20:06:48.675Z,5.73
2017-10-28T20:09:16.442Z,5.50
2017-10-28T20:11:44.033Z,5.70
2017-10-28T20:14:12.380Z,7.00
2017-10-28T20:16:39.906Z,4.17
2017-10-28T20:19:07.431Z,9.52
2017-10-28T20:21:35.761Z,5.43
2017-10-28T20:24:03.304Z,6.50
2017-10-28T20:26:30.836Z,6.73
2017-10-28T20:28:58.385Z,4.22
2017-10-28T20:31:26.687Z,7.33
2017-10-28T20:33:54.229Z,6.50
2017-10-28T20:36:22.089Z,7.70
2017-10-28T20:38:50.392Z,6.67
2017-10-28T20:41:18.232Z,8.27
2017-10-28T20:43:46.552Z,7.87
2017-10-28T20:46:26.808Z,5.78
2017-10-28T20:53:16.085Z,4.80
2017-10-28T20:55:43.709Z,5.93
2017-10-28T20:58:11.248Z,4.70
2017-10-28T21:00:38.802Z,5.33
2017-10-28T21:03:06.348Z,5.17
2017-10-28T21:05:33.873Z,6.10
2017-10-28T21:08:01.432Z,6.12
2017-10-28T21:10:29.246Z,6.23
2017-10-28T21:12:56.880Z,9.50
2017-10-28T21:15:24.464Z,7.18
2017-10-28T21:17:52.000Z,8.47
2017-10-28T21:20:19.553Z,7.47
2017-10-28T21:22:47.144Z,5.83
2017-10-28T21:25:16.425Z,6.10
2017-10-28T21:27:43.960Z,11.47
2017-10-28T21:30:12.283Z,9.00
2017-10-28T21:32:39.816Z,9.60
2017-10-28T21:35:07.352Z,10.10
2017-10-28T21:37:35.267Z,9.90
2017-10-28T21:40:02.792Z,9.27
2017-10-28T21:42:30.748Z,8.40
2017-10-28T21:44:58.300Z,8.77
2017-10-28T21:47:27.380Z,5.40
2017-10-28T21:49:54.908Z,6.83
2017-10-28T21:52:22.460Z,6.25
2017-10-28T21:57:46.176Z,8.67
2017-10-28T22:00:27.187Z,8.87
2017-10-28T22:08:30.520Z,10.40
2017-10-28T22:10:58.052Z,6.53
2017-10-28T22:13:25.591Z,6.77
2017-10-28T22:15:54.106Z,7.67
2017-10-28T22:18:21.643Z,5.72
2017-10-28T22:20:49.945Z,6.67
2017-10-28T22:23:17.520Z,5.57
2017-10-28T22:25:45.043Z,6.30
2017-10-28T22:28:12.596Z,9.30
2017-10-28T22:30:40.172Z,8.80
2017-10-28T22:33:07.709Z,9.93
2017-10-28T22:35:39.583Z,8.30
2017-10-28T22:38:07.201Z,6.53
2017-10-28T22:40:34.735Z,8.70
2017-10-28T22:43:02.659Z,10.17
2017-10-28T22:45:30.981Z,6.93
2017-10-28T22:47:58.505Z,9.43
2017-10-28T22:50:26.801Z,7.53
2017-10-28T22:52:54.362Z,8.13
2017-10-28T22:55:22.704Z,13.00
2017-10-28T22:57:50.240Z,8.60
2017-10-28T23:00:17.819Z,7.05
2017-10-28T23:02:45.356Z,7.77
2017-10-28T23:05:24.999Z,8.63
2017-10-28T23:11:54.825Z,14.30
2017-10-28T23:14:22.360Z,10.95
2017-10-28T23:16:49.892Z,10.73
2017-10-28T23:19:18.235Z,8.23
2017-10-28T23:21:45.776Z,9.60
2017-10-28T23:24:14.539Z,10.85
2017-10-28T23:26:42.094Z,8.80
2017-10-28T23:29:09.632Z,9.30
2017-10-28T23:31:37.164Z,8.30
2017-10-28T23:34:04.725Z,7.77
2017-10-28T23:36:32.252Z,7.60
2017-10-28T23:38:59.780Z,8.03
2017-10-28T23:41:28.120Z,8.17
2017-10-28T23:43:55.971Z,8.77
2017-10-28T23:46:23.501Z,8.68
2017-10-28T23:48:51.077Z,10.33
2017-10-28T23:51:18.603Z,7.27
2017-10-28T23:53:46.899Z,9.97
2017-10-28T23:56:15.494Z,10.97
2017-10-28T23:58:43.043Z,8.83
